createdAt,value
2022-10-17T00:01:06.832Z,27.02
2022-10-17T00:03:37.880Z,26.80
2022-10-17T00:06:13.287Z,30.10
2022-10-17T00:08:41.905Z,26.10
2022-10-17T00:11:15.502Z,28.90
2022-10-17T00:13:44.179Z,29.40
2022-10-17T00:16:14.251Z,34.08
2022-10-17T00:18:43.514Z,30.52
2022-10-17T00:21:16.916Z,31.90
2022-10-17T00:23:50.542Z,25.65
2022-10-17T00:26:21.647Z,26.23
2022-10-17T00:28:52.976Z,29.80
2022-10-17T00:31:25.474Z,30.90
2022-10-17T00:33:55.097Z,29.27
2022-10-17T00:36:24.912Z,27.42
2022-10-17T00:38:54.824Z,28.27
2022-10-17T00:41:26.673Z,31.52
2022-10-17T00:43:58.535Z,31.02
2022-10-17T00:46:27.886Z,26.73
2022-10-17T00:48:57.214Z,32.35
2022-10-17T00:51:30.739Z,32.42
2022-10-17T00:53:59.261Z,32.45
2022-10-17T00:56:28.523Z,35.35
2022-10-17T00:58:57.139Z,36.20
2022-10-17T01:01:24.919Z,32.13
2022-10-17T01:03:52.622Z,29.83
2022-10-17T01:06:20.381Z,32.92
2022-10-17T01:08:48.128Z,32.10
2022-10-17T01:11:31.617Z,32.65
2022-10-17T01:14:06.285Z,34.20
2022-10-17T01:16:43.074Z,30.95
2022-10-17T01:19:42.067Z,26.05
2022-10-17T01:22:15.107Z,31.80
2022-10-17T01:24:56.106Z,30.38
2022-10-17T01:27:38.371Z,31.08
2022-10-17T01:30:42.613Z,32.58
2022-10-17T01:33:18.137Z,27.42
2022-10-17T01:35:53.278Z,27.45
2022-10-17T01:38:24.472Z,30.15
2022-10-17T01:41:00.583Z,34.50
2022-10-17T01:43:35.566Z,29.17
2022-10-17T01:46:12.236Z,28.20
2022-10-17T01:48:45.036Z,29.52
2022-10-17T01:51:17.977Z,34.40
2022-10-17T01:53:52.401Z,27.23
2022-10-17T01:56:22.351Z,27.60
2022-10-17T01:58:53.963Z,30.83
2022-10-17T02:01:29.266Z,33.00
2022-10-17T02:03:59.880Z,28.63
2022-10-17T02:06:27.982Z,26.95
2022-10-17T02:08:55.666Z,28.08
2022-10-17T02:11:26.263Z,25.15
2022-10-17T02:16:56.722Z,29.75
2022-10-17T02:19:48.531Z,25.98
2022-10-17T02:29:59.041Z,28.30
2022-10-17T02:32:34.568Z,31.55
2022-10-17T02:35:05.827Z,82.43
2022-10-17T02:37:35.095Z,83.68
2022-10-17T02:40:07.005Z,61.55
2022-10-17T02:42:35.910Z,49.13
2022-10-17T02:45:04.958Z,32.10
2022-10-17T02:47:39.447Z,34.25
2022-10-17T02:50:07.781Z,34.65
2022-10-17T02:52:43.922Z,36.70
2022-10-17T02:55:17.312Z,35.55
2022-10-17T02:57:48.786Z,29.42
2022-10-17T03:00:17.738Z,28.42
2022-10-17T03:02:49.309Z,33.22
2022-10-17T03:07:45.599Z,27.33
2022-10-17T03:10:13.596Z,28.00
2022-10-17T03:12:43.383Z,29.70
2022-10-17T03:15:13.172Z,27.73
2022-10-17T03:17:40.814Z,32.30
2022-10-17T03:20:10.670Z,33.15
2022-10-17T03:22:38.451Z,33.33
2022-10-17T03:25:06.666Z,26.95
2022-10-17T03:27:34.220Z,31.42
2022-10-17T03:30:02.240Z,29.92
2022-10-17T03:32:30.109Z,36.03
2022-10-17T03:34:57.624Z,27.10
2022-10-17T03:37:26.888Z,30.73
2022-10-17T03:39:54.599Z,32.83
2022-10-17T03:42:22.251Z,33.88
2022-10-17T03:44:50.786Z,28.55
2022-10-17T03:47:18.353Z,32.97
2022-10-17T03:49:47.187Z,33.85
2022-10-17T03:52:15.246Z,29.77
2022-10-17T03:54:44.285Z,32.50
2022-10-17T03:57:11.865Z,33.20
2022-10-17T03:59:39.832Z,35.58
2022-10-17T04:02:07.376Z,35.42
2022-10-17T04:04:35.554Z,34.42
2022-10-17T04:07:03.552Z,33.30
2022-10-17T04:09:33.247Z,36.00
2022-10-17T04:12:02.472Z,32.78
2022-10-17T04:14:30.267Z,31.52
2022-10-17T04:16:58.584Z,32.85
2022-10-17T04:19:26.489Z,35.35
2022-10-17T04:21:54.340Z,42.30
2022-10-17T04:24:22.416Z,34.33
2022-10-17T04:26:52.844Z,37.28
2022-10-17T04:29:24.452Z,35.05
2022-10-17T04:31:52.460Z,53.75
2022-10-17T04:34:20.073Z,43.03
2022-10-17T04:36:48.246Z,39.95
2022-10-17T04:39:15.778Z,42.42
2022-10-17T04:41:43.369Z,37.97
2022-10-17T04:44:11.253Z,45.38
2022-10-17T04:46:40.518Z,46.65
2022-10-17T04:49:08.525Z,46.25
2022-10-17T04:51:36.221Z,36.20
2022-10-17T04:54:05.680Z,38.83
2022-10-17T04:56:34.862Z,29.55
2022-10-17T04:59:03.039Z,29.63
2022-10-17T05:01:30.825Z,31.67
2022-10-17T05:03:59.974Z,34.97
2022-10-17T05:06:27.720Z,34.60
2022-10-17T05:08:55.490Z,32.40
2022-10-17T05:11:24.612Z,29.77
2022-10-17T05:13:56.914Z,33.58
2022-10-17T05:16:25.348Z,34.33
2022-10-17T05:18:56.096Z,34.28
2022-10-17T05:21:27.207Z,34.20
2022-10-17T05:23:54.948Z,34.53
2022-10-17T05:26:23.248Z,34.63
2022-10-17T05:28:52.149Z,33.95
2022-10-17T05:31:19.751Z,34.35
2022-10-17T05:33:49.475Z,36.97
2022-10-17T05:36:17.300Z,37.78
2022-10-17T05:38:49.378Z,37.42
2022-10-17T05:41:18.695Z,35.88
2022-10-17T05:43:47.711Z,35.60
2022-10-17T05:46:15.551Z,40.70
2022-10-17T05:48:43.153Z,41.67
2022-10-17T05:51:11.184Z,39.33
2022-10-17T05:53:40.911Z,41.80
2022-10-17T05:56:11.926Z,34.67
2022-10-17T05:59:00.674Z,40.53
2022-10-17T06:01:29.275Z,35.28
2022-10-17T06:03:57.102Z,59.78
2022-10-17T06:06:26.879Z,71.43
2022-10-17T06:08:54.722Z,42.20
2022-10-17T06:11:23.757Z,65.20
2022-10-17T06:13:51.313Z,54.30
2022-10-17T06:16:19.114Z,66.32
2022-10-17T06:21:23.710Z,41.10
2022-10-17T06:23:52.096Z,43.28
2022-10-17T06:26:20.132Z,49.47
2022-10-17T06:28:49.492Z,49.55
2022-10-17T06:31:17.621Z,46.92
2022-10-17T06:33:45.305Z,49.42
2022-10-17T06:36:17.854Z,46.72
2022-10-17T06:38:46.387Z,51.42
2022-10-17T06:41:16.190Z,61.10
2022-10-17T06:43:46.768Z,50.92
2022-10-17T06:46:17.140Z,42.15
2022-10-17T06:48:45.214Z,50.42
2022-10-17T06:51:13.459Z,47.38
2022-10-17T06:53:42.235Z,39.88
2022-10-17T06:56:10.589Z,39.03
2022-10-17T06:58:40.155Z,39.88
2022-10-17T07:01:09.896Z,37.88
2022-10-17T07:03:40.212Z,52.97
2022-10-17T07:06:08.266Z,41.85
2022-10-17T07:08:36.318Z,44.13
2022-10-17T07:11:10.474Z,47.25
2022-10-17T07:13:39.302Z,34.65
2022-10-17T07:16:07.534Z,36.47
2022-10-17T07:18:36.192Z,41.20
2022-10-17T07:21:05.963Z,45.90
2022-10-17T07:23:35.573Z,37.27
2022-10-17T07:26:05.988Z,37.42
2022-10-17T07:31:06.957Z,37.78
2022-10-17T07:33:37.396Z,39.67
2022-10-17T07:36:07.369Z,37.83
2022-10-17T07:38:36.339Z,38.78
2022-10-17T07:41:05.982Z,40.38
2022-10-17T07:43:35.585Z,36.40
2022-10-17T07:46:05.317Z,36.13
2022-10-17T07:48:33.025Z,36.88
2022-10-17T07:51:03.926Z,35.13
2022-10-17T07:53:34.862Z,38.90
2022-10-17T07:56:05.011Z,27.70
2022-10-17T07:58:33.132Z,31.67
2022-10-17T08:03:30.582Z,35.63
2022-10-17T08:05:58.779Z,30.98
2022-10-17T08:08:27.443Z,35.03
2022-10-17T08:11:03.000Z,28.77
2022-10-17T08:13:31.895Z,31.60
2022-10-17T08:16:00.516Z,31.45
2022-10-17T08:18:28.600Z,29.27
2022-10-17T08:21:00.575Z,35.50
2022-10-17T08:23:29.136Z,34.88
2022-10-17T08:26:01.351Z,29.48
2022-10-17T08:28:29.675Z,25.92
2022-10-17T08:31:03.298Z,28.77
2022-10-17T08:33:31.146Z,27.40
2022-10-17T08:35:59.508Z,26.77
2022-10-17T08:38:34.701Z,21.27
2022-10-17T08:41:11.466Z,21.70
2022-10-17T08:44:02.250Z,26.75
2022-10-17T08:46:32.747Z,20.52
2022-10-17T08:49:05.078Z,20.88
2022-10-17T08:51:43.856Z,23.92
2022-10-17T08:54:17.870Z,23.42
2022-10-17T08:56:50.871Z,29.42
2022-10-17T08:59:23.210Z,27.88
2022-10-17T09:01:58.862Z,25.85
2022-10-17T09:04:58.383Z,26.08
2022-10-17T09:07:37.214Z,27.23
2022-10-17T09:10:13.814Z,28.08
2022-10-17T09:12:51.733Z,23.70
2022-10-17T09:15:52.718Z,26.75
2022-10-17T09:18:26.103Z,25.38
2022-10-17T09:20:55.831Z,35.70
2022-10-17T09:23:27.921Z,31.42
2022-10-17T09:25:58.392Z,28.25
2022-10-17T09:28:32.495Z,27.33
2022-10-17T09:31:03.179Z,22.45
2022-10-17T09:33:53.422Z,25.30
2022-10-17T09:36:24.598Z,29.33
2022-10-17T09:38:54.798Z,24.42
2022-10-17T09:41:44.175Z,17.38
2022-10-17T09:44:18.391Z,17.40
2022-10-17T09:47:02.009Z,18.80
2022-10-17T09:49:35.771Z,20.02
2022-10-17T09:52:06.432Z,20.33
2022-10-17T09:54:42.379Z,21.42
2022-10-17T09:57:11.889Z,24.85
2022-10-17T09:59:44.390Z,23.23
2022-10-17T10:02:20.742Z,27.45
2022-10-17T10:05:05.555Z,23.50
2022-10-17T10:07:35.798Z,21.55
2022-10-17T10:10:07.631Z,19.63
2022-10-17T10:12:39.713Z,21.40
2022-10-17T10:15:34.709Z,23.00
2022-10-17T10:18:02.625Z,22.75
2022-10-17T10:20:34.278Z,23.63
2022-10-17T10:23:17.489Z,33.15
2022-10-17T10:25:58.106Z,31.42
2022-10-17T10:28:29.682Z,29.75
2022-10-17T10:31:01.499Z,22.38
2022-10-17T10:33:30.775Z,23.05
2022-10-17T10:36:00.228Z,26.50
2022-10-17T10:38:30.205Z,27.90
2022-10-17T10:41:03.603Z,23.63
2022-10-17T10:43:36.652Z,23.90
2022-10-17T10:48:36.844Z,22.13
2022-10-17T10:51:08.133Z,27.30
2022-10-17T10:53:44.472Z,20.23
2022-10-17T10:56:18.406Z,25.48
2022-10-17T10:58:55.497Z,20.77
2022-10-17T11:01:31.556Z,27.73
2022-10-17T11:04:13.660Z,22.92
2022-10-17T11:06:44.360Z,29.57
2022-10-17T11:09:23.678Z,23.13
2022-10-17T11:11:56.324Z,25.17
2022-10-17T11:14:34.865Z,21.65
2022-10-17T11:17:12.611Z,21.85
2022-10-17T11:19:45.916Z,22.73
2022-10-17T11:22:17.047Z,23.25
2022-10-17T11:24:53.171Z,24.42
2022-10-17T11:27:21.818Z,21.63
2022-10-17T11:29:49.565Z,22.00
2022-10-17T11:32:24.100Z,26.70
2022-10-17T11:34:55.720Z,19.90
2022-10-17T11:37:26.973Z,22.05
2022-10-17T11:40:00.105Z,21.00
2022-10-17T11:42:33.131Z,20.73
2022-10-17T11:45:06.182Z,19.00
2022-10-17T11:47:41.623Z,19.42
2022-10-17T11:53:13.273Z,19.55
2022-10-17T11:55:42.298Z,17.80
2022-10-17T11:58:30.305Z,25.85
2022-10-17T12:01:07.081Z,20.35
2022-10-17T12:03:51.885Z,23.35
2022-10-17T12:06:35.827Z,19.88
2022-10-17T12:09:12.677Z,24.33
2022-10-17T12:11:49.058Z,18.63
2022-10-17T12:14:42.336Z,19.85
2022-10-17T12:17:28.927Z,19.60
2022-10-17T12:20:25.459Z,16.63
2022-10-17T12:22:55.034Z,16.30
2022-10-17T12:25:24.651Z,16.50
2022-10-17T12:28:14.157Z,14.80
2022-10-17T12:30:58.182Z,16.13
2022-10-17T12:33:38.166Z,25.77
2022-10-17T12:36:45.363Z,18.75
2022-10-17T12:39:48.536Z,18.63
2022-10-17T12:42:48.443Z,17.48
2022-10-17T12:45:46.577Z,17.15
2022-10-17T12:48:34.208Z,17.50
2022-10-17T12:53:59.537Z,28.88
2022-10-17T12:56:37.507Z,14.57
2022-10-17T12:59:13.832Z,40.70
2022-10-17T13:01:46.346Z,55.10
2022-10-17T13:04:14.560Z,41.90
2022-10-17T13:06:48.375Z,16.23
2022-10-17T13:09:23.007Z,14.38
2022-10-17T13:11:52.759Z,17.88
2022-10-17T13:14:22.926Z,15.73
2022-10-17T13:16:53.090Z,15.18
2022-10-17T13:19:23.771Z,17.37
2022-10-17T13:21:53.962Z,16.95
2022-10-17T13:24:28.829Z,15.80
2022-10-17T13:26:57.363Z,13.07
2022-10-17T13:29:26.699Z,16.90
2022-10-17T13:31:56.449Z,20.52
2022-10-17T13:34:26.315Z,16.05
2022-10-17T13:36:57.482Z,13.88
2022-10-17T13:39:44.756Z,18.67
2022-10-17T13:42:22.858Z,24.35
2022-10-17T13:44:50.925Z,17.65
2022-10-17T13:47:23.476Z,12.27
2022-10-17T13:49:55.274Z,13.88
2022-10-17T13:52:28.323Z,17.63
2022-10-17T13:55:07.637Z,13.32
2022-10-17T13:57:35.379Z,15.77
2022-10-17T14:00:10.039Z,12.88
2022-10-17T14:02:41.466Z,18.00
2022-10-17T14:05:17.245Z,13.55
2022-10-17T14:10:44.783Z,17.83
2022-10-17T14:13:22.155Z,15.52
2022-10-17T14:15:51.471Z,13.80
2022-10-17T14:18:24.109Z,17.60
2022-10-17T14:21:34.312Z,15.00
2022-10-17T14:23:44.147Z,14.65
2022-10-17T14:26:15.363Z,15.45
2022-10-17T14:28:45.674Z,16.85
2022-10-17T14:31:22.284Z,19.02
2022-10-17T14:33:51.408Z,18.42
2022-10-17T14:36:20.452Z,16.83
2022-10-17T14:38:52.432Z,18.42
2022-10-17T14:41:42.002Z,14.73
2022-10-17T14:44:19.291Z,13.88
2022-10-17T14:46:51.019Z,14.63
2022-10-17T14:49:25.327Z,18.17
2022-10-17T14:52:27.428Z,29.67
2022-10-17T14:54:57.610Z,49.13
2022-10-17T14:57:43.145Z,25.00
2022-10-17T15:00:15.169Z,36.75
2022-10-17T15:02:43.469Z,34.78
2022-10-17T15:05:13.584Z,40.75
2022-10-17T15:07:42.620Z,31.45
2022-10-17T15:10:31.000Z,38.75
2022-10-17T15:13:15.849Z,47.75
2022-10-17T15:15:49.096Z,28.02
2022-10-17T15:18:18.343Z,39.40
2022-10-17T15:20:46.467Z,44.55
2022-10-17T15:23:14.049Z,40.97
2022-10-17T15:25:45.027Z,44.08
2022-10-17T15:28:13.518Z,44.30
2022-10-17T15:30:42.075Z,37.40
2022-10-17T15:33:09.817Z,33.33
2022-10-17T15:35:37.611Z,52.97
2022-10-17T15:38:07.226Z,48.85
2022-10-17T15:40:35.235Z,41.90
2022-10-17T15:43:04.381Z,52.63
2022-10-17T15:45:33.650Z,54.65
2022-10-17T15:48:06.112Z,41.75
2022-10-17T15:50:33.642Z,51.58
2022-10-17T15:53:01.247Z,72.07
2022-10-17T15:55:29.178Z,157.70
2022-10-17T15:57:57.081Z,164.50
2022-10-17T16:00:26.148Z,104.40
2022-10-17T16:02:54.045Z,103.00
2022-10-17T16:05:24.097Z,117.50
2022-10-17T16:07:53.308Z,127.13
2022-10-17T16:10:22.294Z,124.88
2022-10-17T16:12:50.396Z,124.68
2022-10-17T16:15:23.744Z,89.95
2022-10-17T16:17:53.893Z,79.05
2022-10-17T16:20:23.164Z,57.20
2022-10-17T16:22:51.969Z,46.17
2022-10-17T16:25:23.710Z,41.60
2022-10-17T16:27:54.393Z,40.50
2022-10-17T16:30:23.589Z,47.00
2022-10-17T16:32:54.211Z,52.00
2022-10-17T16:35:23.962Z,67.32
2022-10-17T16:37:54.014Z,86.93
2022-10-17T16:40:21.968Z,69.50
2022-10-17T16:42:49.630Z,77.90
2022-10-17T16:45:19.823Z,56.63
2022-10-17T16:47:47.755Z,70.00
2022-10-17T16:50:18.101Z,60.85
2022-10-17T16:52:46.066Z,64.32
2022-10-17T16:55:13.621Z,66.17
2022-10-17T17:00:13.115Z,62.45
2022-10-17T17:02:41.335Z,82.18
2022-10-17T17:05:09.947Z,76.95
2022-10-17T17:07:39.556Z,112.68
2022-10-17T17:10:07.960Z,129.52
2022-10-17T17:12:37.058Z,122.70
2022-10-17T17:15:05.622Z,154.13
2022-10-17T17:17:48.793Z,147.48
2022-10-17T17:20:18.176Z,75.30
2022-10-17T17:22:47.752Z,126.55
2022-10-17T17:25:15.702Z,265.45
2022-10-17T17:27:43.420Z,171.68
2022-10-17T17:30:12.076Z,179.32
2022-10-17T17:32:40.156Z,229.35
2022-10-17T17:35:09.184Z,274.80
2022-10-17T17:37:37.701Z,149.20
2022-10-17T17:40:08.526Z,173.00
2022-10-17T17:42:36.769Z,253.63
2022-10-17T17:45:05.452Z,239.25
2022-10-17T17:47:33.533Z,200.63
2022-10-17T17:50:03.640Z,161.45
2022-10-17T17:52:31.904Z,135.32
2022-10-17T17:54:59.711Z,130.00
2022-10-17T17:57:30.740Z,121.90
2022-10-17T17:59:58.354Z,129.23
2022-10-17T18:02:26.013Z,158.43
2022-10-17T18:04:54.321Z,203.40
2022-10-17T18:07:22.284Z,226.35
2022-10-17T18:09:52.647Z,182.87
2022-10-17T18:12:21.117Z,143.05
2022-10-17T18:14:50.119Z,140.35
2022-10-17T18:17:18.602Z,131.02
2022-10-17T18:19:47.210Z,124.22
2022-10-17T18:22:15.300Z,115.93
2022-10-17T18:24:43.299Z,143.00
2022-10-17T18:27:11.038Z,184.50
2022-10-17T18:29:38.802Z,187.10
2022-10-17T18:32:08.066Z,196.50
2022-10-17T18:34:36.101Z,221.68
2022-10-17T18:37:03.834Z,290.05
2022-10-17T18:39:31.579Z,277.20
2022-10-17T18:41:59.305Z,262.75
2022-10-17T18:44:27.047Z,213.23
2022-10-17T18:46:55.751Z,228.07
2022-10-17T18:49:26.597Z,222.70
2022-10-17T18:51:54.210Z,236.88
2022-10-17T18:54:22.240Z,228.25
2022-10-17T18:56:52.385Z,293.67
2022-10-17T18:59:20.992Z,265.95
2022-10-17T19:01:49.003Z,253.32
2022-10-17T19:04:18.134Z,273.45
2022-10-17T19:06:47.114Z,230.95
2022-10-17T19:09:15.025Z,185.40
2022-10-17T19:11:43.307Z,503.88
2022-10-17T19:14:15.079Z,997.40
2022-10-17T19:16:49.168Z,627.97
2022-10-17T19:19:19.928Z,505.73
2022-10-17T19:21:51.544Z,340.02
2022-10-17T19:24:20.808Z,226.18
2022-10-17T19:26:50.192Z,176.13
2022-10-17T19:29:18.560Z,191.07
2022-10-17T19:31:47.764Z,253.95
2022-10-17T19:34:17.280Z,248.43
2022-10-17T19:36:46.604Z,183.45
2022-10-17T19:39:17.161Z,181.88
2022-10-17T19:41:48.148Z,222.98
2022-10-17T19:44:16.205Z,226.90
2022-10-17T19:46:44.359Z,253.95
2022-10-17T19:49:13.404Z,202.95
2022-10-17T19:51:41.300Z,192.27
2022-10-17T19:54:09.443Z,172.80
2022-10-17T19:56:41.016Z,139.85
2022-10-17T19:59:11.534Z,118.55
2022-10-17T20:01:39.998Z,117.40
2022-10-17T20:04:09.133Z,122.65
2022-10-17T20:06:37.744Z,111.40
2022-10-17T20:09:07.337Z,94.95
2022-10-17T20:11:38.098Z,98.68
2022-10-17T20:14:07.359Z,94.15
2022-10-17T20:16:36.398Z,73.90
2022-10-17T20:19:05.898Z,83.05
2022-10-17T20:21:34.211Z,98.55
2022-10-17T20:24:04.214Z,93.07
2022-10-17T20:26:38.026Z,94.78
2022-10-17T20:29:11.708Z,83.93
2022-10-17T20:31:41.755Z,80.18
2022-10-17T20:34:11.803Z,79.72
2022-10-17T20:36:41.616Z,67.70
2022-10-17T20:39:11.432Z,67.15
2022-10-17T20:41:40.384Z,67.90
2022-10-17T20:44:09.923Z,76.60
2022-10-17T20:46:44.831Z,81.85
2022-10-17T20:49:18.016Z,87.55
2022-10-17T20:51:46.091Z,91.75
2022-10-17T20:54:13.695Z,85.45
2022-10-17T20:56:41.519Z,93.82
2022-10-17T20:59:14.677Z,88.00
2022-10-17T21:01:42.846Z,85.05
2022-10-17T21:04:40.318Z,86.80
2022-10-17T21:06:58.544Z,93.78
2022-10-17T21:09:26.380Z,84.60
2022-10-17T21:11:55.248Z,80.00
2022-10-17T21:14:25.758Z,69.45
2022-10-17T21:16:55.208Z,89.70
2022-10-17T21:19:22.795Z,70.35
2022-10-17T21:21:50.914Z,62.78
2022-10-17T21:24:18.752Z,62.08
2022-10-17T21:26:48.090Z,60.40
2022-10-17T21:29:16.624Z,53.35
2022-10-17T21:31:45.726Z,49.03
2022-10-17T21:34:14.514Z,56.22
2022-10-17T21:36:43.257Z,64.97
2022-10-17T21:39:12.732Z,64.22
2022-10-17T21:41:40.973Z,62.10
2022-10-17T21:44:12.843Z,65.20
2022-10-17T21:46:40.942Z,54.97
2022-10-17T21:49:12.139Z,56.65
2022-10-17T21:51:40.499Z,62.25
2022-10-17T21:54:08.678Z,63.05
2022-10-17T21:56:37.264Z,60.92
2022-10-17T21:59:09.462Z,59.60
2022-10-17T22:01:39.692Z,61.58
2022-10-17T22:04:10.395Z,65.43
2022-10-17T22:06:44.307Z,68.75
2022-10-17T22:09:15.081Z,84.18
2022-10-17T22:11:46.613Z,82.47
2022-10-17T22:14:16.763Z,88.00
2022-10-17T22:16:44.756Z,75.10
2022-10-17T22:19:14.890Z,80.93
2022-10-17T22:21:45.565Z,77.38
2022-10-17T22:24:14.935Z,74.63
2022-10-17T22:26:43.269Z,66.72
2022-10-17T22:29:13.191Z,61.83
2022-10-17T22:31:41.912Z,70.22
2022-10-17T22:34:12.368Z,71.07
2022-10-17T22:36:40.576Z,72.65
2022-10-17T22:39:10.457Z,69.95
2022-10-17T22:41:38.044Z,61.47
2022-10-17T22:44:06.422Z,69.85
2022-10-17T22:46:34.041Z,63.38
2022-10-17T22:49:01.605Z,53.95
2022-10-17T22:51:29.252Z,50.97
2022-10-17T22:53:57.214Z,56.42
2022-10-17T22:56:26.187Z,68.75
2022-10-17T22:58:54.177Z,61.28
2022-10-17T23:01:26.115Z,47.47
2022-10-17T23:03:54.322Z,43.88
2022-10-17T23:06:22.500Z,43.42
2022-10-17T23:08:50.375Z,45.85
2022-10-17T23:11:18.675Z,52.53
2022-10-17T23:13:48.658Z,58.22
2022-10-17T23:16:16.218Z,84.22
2022-10-17T23:18:46.166Z,90.40
2022-10-17T23:21:13.941Z,82.40
2022-10-17T23:23:41.748Z,73.45
2022-10-17T23:26:13.220Z,72.55
2022-10-17T23:28:42.694Z,63.38
2022-10-17T23:31:15.109Z,54.00
2022-10-17T23:33:44.608Z,59.70
2022-10-17T23:36:15.094Z,63.47
2022-10-17T23:38:44.457Z,76.75
2022-10-17T23:41:12.893Z,64.28
2022-10-17T23:46:13.114Z,55.60
2022-10-17T23:51:11.248Z,48.20
2022-10-17T23:53:40.538Z,55.72
2022-10-17T23:56:09.468Z,49.42
2022-10-17T23:58:38.468Z,50.92
